Jacinto, Mississippi
Current Conditions -  °F | °C
As of 8:15 AM on Thursday 27 Nov 2014 (Local Time) from KCRX Reporting Station
Overcast Overcast  
Wind Chill: 32°   Ceiling: 2300
Heat Index: 39°   Visibility: NA
Dew Point: 30°   Wind: 12mph
Humidity: 70%   Direction: 340°NNW
Pressure: 30.4"   Gusts: 17mph
Location:  34.7969°N, 88.6031°W
Report Text: KCRX 271415Z AUTO 34010G15KT OVC023 04/M01 A3040 RMK AO2
Loading
Personal Weather Stations






























Interactive Weather Map New forecast layout! Learn more

10-Day Weather Forecast

Advertisements
Track Severe Weather on mobile